Aeroporto :
LOGIN :

Iscrizione | Disclaimer

   EN    FR    IT 

 










Sommario :    VFR   VFR Marginale   IFR   IFR Intensivo   IFR Molto Intensivo
Visibilità : 
Base nubi : 
>= 8 km
>= 3000ft
5 / 8 km
1000 / 3000 ft
1500m / 5 km
500 / 1000 ft
800 / 1500m
200 / 500 ft
< 800m
< 200 ft
Simboli :   Temporali  Nebbia  Neve Forte  Precipitazioni Forti  Vento > 20 kt
SIGMETs :   Varie  Temporali  Ghiacco  Turbolenza  Onda orograficha  Ceneri Vulcaniche







- Altitudine del aeroporto : 327 ft
- Codice IATA : BHX
- Carte del aeroporto


EGBB - Birmingham

ULTIMO METAR :
  • 241950Z 16004KT CAVOK 09/07 Q0995

METARs OBSOLETI :
  • 241920Z 17004KT 9999 FEW022 10/07 Q0995
  • 241850Z 18006KT 9999 FEW022 11/07 Q0995
  • 241820Z 19008KT 160V220 9999 FEW022 11/07 Q0994
  • 241750Z 19008KT 160V240 9999 VCSH FEW018 SCT024CB 11/07 Q0994
  • 241720Z 19013KT 170V230 9999 FEW018 SCT023 11/07 Q0993

TAF TAF EGBB
Valido dal 24 a 18 ore il 25 a 18 ore UTC


241706Z 2418/2518 19012KT 9999 FEW015 SCT035
PROB30
TEMPO 2418/2420 6000 SHRA
BECMG 2422/2501 12010KT
PROB40
TEMPO 2502/2507 13015G25KT 6000 RA SHRA BKN008
BECMG 2508/2511 18012KT
TEMPO 2509/2518 7000 SHRA
PROB30
TEMPO 2509/2518 19015G25KT 4000 +SHRA SHGR BKN014 BKN035CB
ATIS : +44 121 780 0910
Nessun NOTAM noto per questo aeroporto.



MetMap, La meteo Aeronautica in un colpo d'occhio ! - Copyright ORBIFLY Dicembre 2007 - Disclaimer

ORBIFLY MET'MAP TEAM :

Programmazione e sviluppo : Alexandra Zaïnal
Concezione e sviluppo : Baudouin d'Aumeries
Co-Programmazione e sviluppo : Marc-Olivier Méhu
Supporto tecnico e logistico : Manuel Goepfert
Aiuto per la traduzione : Arnaldo La Scala

Contatto : metmap@orbifly.com




FONTI E CREDITI :

   NOAA